createdAt,value
2019-03-09T00:01:35.635Z,93766.56
2019-03-09T00:04:45.175Z,93726.14
2019-03-09T00:07:22.120Z,93720.34
2019-03-09T00:10:03.592Z,93761.56
2019-03-09T00:12:57.840Z,93744.45
2019-03-09T00:15:32.932Z,93746.36
2019-03-09T00:18:13.684Z,93734.45
2019-03-09T00:20:52.705Z,93760.56
2019-03-09T00:24:03.238Z,93758.16
2019-03-09T00:26:44.296Z,93746.05
2019-03-09T00:29:19.915Z,93675.30
2019-03-09T00:33:01.665Z,93715.34
2019-03-09T00:37:55.903Z,93772.56
2019-03-09T00:40:31.287Z,93796.81
2019-03-09T00:43:14.084Z,93782.58
2019-03-09T00:45:56.631Z,93766.06
2019-03-09T00:48:44.171Z,93789.52
2019-03-09T00:51:26.451Z,93822.04
2019-03-09T01:00:32.975Z,93780.78
2019-03-09T01:03:16.925Z,93764.47
2019-03-09T01:06:23.417Z,93714.24
2019-03-09T01:08:58.682Z,93750.86
2019-03-09T01:11:40.459Z,93738.95
2019-03-09T01:14:28.910Z,93751.55
2019-03-09T01:17:20.936Z,93734.14
2019-03-09T01:19:56.047Z,93764.16
2019-03-09T01:22:51.183Z,93754.45
2019-03-09T01:25:28.936Z,93757.06
2019-03-09T01:28:11.849Z,93748.95
2019-03-09T01:33:49.116Z,93747.16
2019-03-09T01:36:23.134Z,93760.56
2019-03-09T01:39:12.967Z,93758.96
2019-03-09T01:41:55.222Z,93773.97
2019-03-09T01:44:27.537Z,93761.56
2019-03-09T01:47:07.497Z,93748.16
2019-03-09T01:49:52.992Z,93748.95
2019-03-09T01:52:33.404Z,93741.05
2019-03-09T01:55:07.439Z,93750.86
2019-03-09T01:57:55.637Z,93717.25
2019-03-09T02:00:35.844Z,93740.05
2019-03-09T02:03:07.808Z,93746.66
2019-03-09T02:05:40.365Z,93767.67
2019-03-09T02:08:14.010Z,93756.25
2019-03-09T02:11:00.607Z,93736.66
2019-03-09T02:13:33.114Z,93743.76
2019-03-09T02:16:13.171Z,93695.14
2019-03-09T02:18:56.043Z,93693.04
2019-03-09T02:21:36.519Z,93727.45
2019-03-09T02:24:14.664Z,93745.55
2019-03-09T02:26:49.073Z,93769.77
2019-03-09T02:29:25.070Z,93745.05
2019-03-09T02:32:09.527Z,93750.06
2019-03-09T02:34:46.608Z,93743.76
2019-03-09T02:37:31.719Z,93741.36
2019-03-09T02:40:11.157Z,93725.34
2019-03-09T02:42:51.401Z,93727.95
2019-03-09T02:45:33.220Z,93687.73
2019-03-09T02:48:03.787Z,93731.34
2019-03-09T02:50:36.189Z,93724.24
2019-03-09T02:53:21.554Z,93754.06
2019-03-09T02:55:55.914Z,93744.55
2019-03-09T02:58:30.945Z,93696.33
2019-03-09T03:01:35.793Z,93681.13
2019-03-09T03:04:32.050Z,93669.30
2019-03-09T03:07:07.313Z,93676.91
2019-03-09T03:09:43.817Z,93698.23
2019-03-09T03:12:12.572Z,93679.84
2019-03-09T03:14:55.709Z,93646.70
2019-03-09T03:17:31.450Z,93632.70
2019-03-09T03:21:19.604Z,93668.00
2019-03-09T03:22:55.316Z,93681.94
2019-03-09T03:25:46.536Z,93693.04
2019-03-09T03:28:38.548Z,93688.23
2019-03-09T03:31:27.005Z,93685.94
2019-03-09T03:33:54.159Z,93731.05
2019-03-09T03:36:25.054Z,93749.25
2019-03-09T03:39:04.993Z,93716.94
2019-03-09T03:41:37.486Z,93687.23
2019-03-09T03:44:12.738Z,93677.70
2019-03-09T03:46:51.842Z,93683.03
2019-03-09T03:49:37.641Z,93644.30
2019-03-09T03:52:12.779Z,93623.30
2019-03-09T03:54:47.915Z,93681.13
2019-03-09T03:57:26.628Z,93653.50
2019-03-09T04:00:07.316Z,93644.60
2019-03-09T04:02:45.386Z,93663.80
2019-03-09T04:05:18.107Z,93682.73
2019-03-09T04:07:49.906Z,93643.80
2019-03-09T04:10:21.915Z,93634.11
2019-03-09T04:12:58.370Z,93648.50
2019-03-09T04:15:39.434Z,93651.90
2019-03-09T04:18:19.586Z,93663.70
2019-03-09T04:21:04.340Z,93685.14
2019-03-09T04:23:31.302Z,93664.30
2019-03-09T04:26:03.574Z,93640.10
2019-03-09T04:28:40.440Z,93620.71
2019-03-09T04:31:18.556Z,93584.92
2019-03-09T04:33:54.554Z,93599.72
2019-03-09T04:36:37.425Z,93582.33
2019-03-09T04:39:10.016Z,93569.70
2019-03-09T04:41:45.156Z,93597.81
2019-03-09T04:44:20.386Z,93573.92
2019-03-09T04:46:55.070Z,93497.76
2019-03-09T04:49:29.685Z,93491.47
2019-03-09T04:52:07.539Z,93527.73
2019-03-09T04:54:41.135Z,93512.94
2019-03-09T04:57:20.938Z,93491.16
2019-03-09T04:59:54.621Z,93462.56
2019-03-09T05:02:39.776Z,93481.98
2019-03-09T05:05:14.824Z,93501.75
2019-03-09T05:07:52.842Z,93472.55
2019-03-09T05:10:43.353Z,93504.35
2019-03-09T05:13:46.012Z,93534.83
2019-03-09T05:16:17.392Z,93489.36
2019-03-09T05:18:57.038Z,93512.94
2019-03-09T05:21:37.001Z,93427.91
2019-03-09T05:24:21.587Z,93459.38
2019-03-09T05:26:56.517Z,93413.23
2019-03-09T05:29:43.493Z,93451.28
2019-03-09T05:32:28.279Z,93459.97
2019-03-09T05:35:03.792Z,93447.59
2019-03-09T05:37:45.536Z,93451.58
2019-03-09T05:40:22.948Z,93371.51
2019-03-09T05:42:56.712Z,93383.28
2019-03-09T05:45:34.728Z,93393.27
2019-03-09T05:48:11.162Z,93363.63
2019-03-09T05:50:48.188Z,93349.42
2019-03-09T05:53:22.532Z,93389.38
2019-03-09T05:55:56.411Z,93418.73
2019-03-09T05:58:33.523Z,93345.33
2019-03-09T06:01:07.854Z,93351.95
2019-03-09T06:03:44.903Z,93358.43
2019-03-09T06:06:24.421Z,93434.00
2019-03-09T06:09:14.886Z,93659.91
2019-03-09T06:11:50.975Z,93898.77
2019-03-09T06:14:45.583Z,93883.72
2019-03-09T06:17:24.536Z,93798.72
2019-03-09T06:19:55.334Z,93736.16
2019-03-09T06:22:30.251Z,93678.84
2019-03-09T06:25:08.302Z,93670.91
2019-03-09T06:28:08.264Z,93665.10
2019-03-09T06:30:50.954Z,93693.04
2019-03-09T06:33:29.083Z,93761.66
2019-03-09T06:36:36.138Z,93916.40
2019-03-09T06:39:48.470Z,94103.33
2019-03-09T06:42:31.098Z,94342.36
2019-03-09T06:45:23.356Z,94370.08
2019-03-09T06:48:08.810Z,94323.05
2019-03-09T06:50:56.600Z,94290.92
2019-03-09T06:53:37.095Z,94257.39
2019-03-09T06:56:41.054Z,94229.50
2019-03-09T06:59:23.386Z,94229.19
2019-03-09T07:01:58.811Z,94313.50
2019-03-09T07:16:31.017Z,95166.31
2019-03-09T07:22:19.072Z,95460.16
2019-03-09T07:25:33.048Z,95617.16
2019-03-09T07:28:39.428Z,95757.30
2019-03-09T07:44:51.781Z,96498.02
2019-03-09T07:47:57.042Z,96353.67
2019-03-09T08:00:57.449Z,96758.66
2019-03-09T08:04:36.461Z,96931.88
2019-03-09T08:07:37.328Z,96648.60
2019-03-09T08:10:51.485Z,96284.91
2019-03-09T08:13:42.409Z,96234.54
2019-03-09T08:17:08.333Z,96330.84
2019-03-09T08:19:49.251Z,96343.64
2019-03-09T08:29:16.242Z,95934.94
2019-03-09T09:16:46.935Z,95550.20
2019-03-09T09:20:07.005Z,95569.48
2019-03-09T09:42:37.114Z,95627.20
2019-03-09T09:53:20.853Z,95700.12
2019-03-09T09:56:05.851Z,95700.12
2019-03-09T09:59:44.281Z,95781.72
2019-03-09T10:08:56.010Z,96235.86
2019-03-09T10:11:48.346Z,96461.71
2019-03-09T10:15:10.434Z,96436.41
2019-03-09T10:17:51.225Z,96523.82
2019-03-09T10:20:36.394Z,96311.32
2019-03-09T10:23:59.760Z,96098.09
2019-03-09T10:26:38.414Z,95972.76
2019-03-09T10:29:18.036Z,95850.78
2019-03-09T10:31:54.294Z,95854.53
2019-03-09T10:34:46.780Z,95802.34
2019-03-09T11:00:35.392Z,95916.42
